createdAt,value
2018-06-17T00:00:28.958Z,0
2018-06-17T00:01:09.497Z,0
2018-06-17T00:01:49.998Z,0
2018-06-17T00:02:30.478Z,0
2018-06-17T00:03:10.933Z,0
2018-06-17T00:03:51.438Z,0
2018-06-17T00:04:31.921Z,0
2018-06-17T00:05:12.413Z,0
2018-06-17T00:05:52.899Z,0
2018-06-17T00:06:33.386Z,0
2018-06-17T00:07:13.938Z,0
2018-06-17T00:07:54.366Z,0
2018-06-17T00:08:34.858Z,0
2018-06-17T00:09:15.335Z,0
2018-06-17T00:09:55.876Z,0
2018-06-17T00:10:36.338Z,0
2018-06-17T00:11:16.910Z,0
2018-06-17T00:11:57.376Z,0
2018-06-17T00:12:37.919Z,0
2018-06-17T00:13:18.406Z,0
2018-06-17T00:13:58.871Z,0
2018-06-17T00:14:39.413Z,0
2018-06-17T00:15:19.921Z,0
2018-06-17T00:16:00.436Z,0
2018-06-17T00:16:40.914Z,0
2018-06-17T00:17:21.444Z,0
2018-06-17T00:18:01.897Z,0
2018-06-17T00:18:42.385Z,0
2018-06-17T00:19:22.898Z,0
2018-06-17T00:20:03.405Z,0
2018-06-17T00:20:43.913Z,0
2018-06-17T00:21:24.422Z,0
2018-06-17T00:22:04.870Z,0
2018-06-17T00:22:45.367Z,0
2018-06-17T00:23:25.887Z,0
2018-06-17T00:24:06.383Z,0
2018-06-17T00:24:46.913Z,0
2018-06-17T00:25:27.426Z,0
2018-06-17T00:26:07.916Z,0
2018-06-17T00:26:48.407Z,0
2018-06-17T00:27:28.883Z,0
2018-06-17T00:28:09.407Z,0
2018-06-17T00:28:49.888Z,0
2018-06-17T00:29:30.407Z,0
2018-06-17T00:30:10.943Z,0
2018-06-17T00:30:51.530Z,0
2018-06-17T00:31:31.988Z,0
2018-06-17T00:32:12.523Z,0
2018-06-17T00:32:53.004Z,0
2018-06-17T00:33:33.507Z,0
2018-06-17T00:34:13.967Z,0
2018-06-17T00:34:54.498Z,0
2018-06-17T00:35:34.945Z,0
2018-06-17T00:36:15.481Z,0
2018-06-17T00:36:56.027Z,0
2018-06-17T00:37:36.526Z,0
2018-06-17T00:38:16.993Z,0
2018-06-17T00:38:57.543Z,0
2018-06-17T00:39:38.050Z,0
2018-06-17T00:40:18.527Z,0
2018-06-17T00:40:59.035Z,0
2018-06-17T00:41:39.578Z,0
2018-06-17T00:42:20.120Z,0
2018-06-17T00:43:00.586Z,0
2018-06-17T00:43:41.097Z,0
2018-06-17T00:44:21.526Z,0
2018-06-17T00:45:02.069Z,0
2018-06-17T00:45:42.529Z,0
2018-06-17T00:46:23.053Z,0
2018-06-17T00:47:03.622Z,0
2018-06-17T00:47:44.121Z,0
2018-06-17T00:48:24.582Z,0
2018-06-17T00:49:05.036Z,0
2018-06-17T00:49:45.514Z,0
2018-06-17T00:50:26.038Z,0
2018-06-17T00:51:06.548Z,0
2018-06-17T00:51:47.059Z,0
2018-06-17T00:52:27.519Z,0
2018-06-17T00:53:07.992Z,0
2018-06-17T00:53:48.521Z,0
2018-06-17T00:54:29.010Z,0
2018-06-17T00:55:09.498Z,0
2018-06-17T00:55:49.997Z,0
2018-06-17T00:56:30.504Z,0
2018-06-17T00:57:11.018Z,0
2018-06-17T00:57:51.560Z,0
2018-06-17T00:58:32.020Z,0
2018-06-17T00:59:12.525Z,0
2018-06-17T00:59:53.046Z,0
2018-06-17T01:00:33.536Z,0
2018-06-17T01:01:14.025Z,0
2018-06-17T01:01:54.541Z,0
2018-06-17T01:02:35.070Z,0
2018-06-17T01:03:15.519Z,0
2018-06-17T01:03:56.021Z,0
2018-06-17T01:04:36.489Z,0
2018-06-17T01:05:17.048Z,0
2018-06-17T01:05:57.532Z,0
2018-06-17T01:06:37.999Z,0
2018-06-17T01:07:18.519Z,0
2018-06-17T01:07:59.060Z,0
2018-06-17T01:08:39.497Z,0
2018-06-17T01:09:19.991Z,0
2018-06-17T01:10:00.508Z,0
2018-06-17T01:10:41.063Z,0
2018-06-17T01:11:21.537Z,0
2018-06-17T01:12:02.006Z,0
2018-06-17T01:12:42.537Z,0
2018-06-17T01:13:23.006Z,0
2018-06-17T01:14:03.531Z,0
2018-06-17T01:14:44.036Z,0
2018-06-17T01:15:24.532Z,0
2018-06-17T01:16:05.036Z,0
2018-06-17T01:16:45.501Z,0
2018-06-17T01:17:26.027Z,0
2018-06-17T01:18:06.494Z,0
2018-06-17T01:18:47.027Z,0
2018-06-17T01:19:27.541Z,0
2018-06-17T01:20:08.040Z,0
2018-06-17T01:20:48.507Z,0
2018-06-17T01:21:29.016Z,0
2018-06-17T01:22:09.533Z,0
2018-06-17T01:22:50.016Z,0
2018-06-17T01:23:30.542Z,0
2018-06-17T01:24:10.986Z,0
2018-06-17T01:24:51.511Z,0
2018-06-17T01:25:32.007Z,0
2018-06-17T01:26:12.451Z,0
2018-06-17T01:26:52.959Z,0
2018-06-17T01:27:33.476Z,0
2018-06-17T01:28:13.981Z,0
2018-06-17T01:28:54.484Z,0
2018-06-17T01:29:35.026Z,0
2018-06-17T01:30:15.503Z,0
2018-06-17T01:30:56.021Z,0
2018-06-17T01:31:36.548Z,0
2018-06-17T01:32:17.039Z,0
2018-06-17T01:32:57.593Z,0
2018-06-17T01:33:38.067Z,0
2018-06-17T01:34:18.596Z,0
2018-06-17T01:34:59.061Z,0
2018-06-17T01:35:39.604Z,0
2018-06-17T01:36:20.115Z,0
2018-06-17T01:37:00.622Z,0
2018-06-17T01:37:41.121Z,0
2018-06-17T01:38:21.611Z,0
2018-06-17T01:39:02.103Z,0
2018-06-17T01:39:42.584Z,0
2018-06-17T01:40:23.104Z,0
2018-06-17T01:41:03.585Z,0
2018-06-17T01:41:44.042Z,0
2018-06-17T01:42:24.543Z,0
2018-06-17T01:43:05.045Z,0
2018-06-17T01:43:45.554Z,0
2018-06-17T01:44:26.048Z,0
2018-06-17T01:45:06.552Z,0
2018-06-17T01:45:47.074Z,0
2018-06-17T01:46:27.532Z,0
2018-06-17T01:47:08.030Z,0
2018-06-17T01:47:48.549Z,0
2018-06-17T01:48:29.039Z,0
2018-06-17T01:49:09.581Z,0
2018-06-17T01:49:50.077Z,0
2018-06-17T01:50:30.593Z,0
2018-06-17T01:51:11.054Z,0
2018-06-17T01:51:51.560Z,0
2018-06-17T01:52:32.027Z,0
2018-06-17T01:53:12.523Z,0
2018-06-17T01:53:53.057Z,0
2018-06-17T01:54:33.518Z,0
2018-06-17T01:55:14.042Z,0
2018-06-17T01:55:54.520Z,0
2018-06-17T01:56:35.031Z,0
2018-06-17T01:57:15.513Z,0
2018-06-17T01:57:56.071Z,0
2018-06-17T01:58:36.577Z,0
2018-06-17T01:59:17.108Z,0
2018-06-17T01:59:57.563Z,0
2018-06-17T02:00:38.058Z,0
2018-06-17T02:01:18.531Z,0
2018-06-17T02:01:59.037Z,0
2018-06-17T02:02:39.568Z,0
2018-06-17T02:03:20.058Z,0
2018-06-17T02:04:00.521Z,0
2018-06-17T02:04:41.026Z,0
2018-06-17T02:05:21.498Z,0
2018-06-17T02:06:02.016Z,0
2018-06-17T02:06:42.547Z,0
2018-06-17T02:07:23.162Z,0
2018-06-17T02:08:03.643Z,0
2018-06-17T02:08:44.166Z,0
2018-06-17T02:09:24.703Z,0
2018-06-17T02:10:05.132Z,0
2018-06-17T02:10:45.617Z,0
2018-06-17T02:11:26.133Z,0
2018-06-17T02:12:06.695Z,0
2018-06-17T02:12:47.144Z,0
2018-06-17T02:13:27.609Z,0
2018-06-17T02:14:08.096Z,0
2018-06-17T02:14:48.579Z,0
2018-06-17T02:15:29.045Z,0
2018-06-17T02:16:09.569Z,0
2018-06-17T02:16:50.045Z,0
2018-06-17T02:17:30.559Z,0
2018-06-17T02:18:11.062Z,0
2018-06-17T02:18:51.504Z,0
2018-06-17T02:19:32.020Z,0
2018-06-17T02:20:12.506Z,0
2018-06-17T02:20:52.991Z,0
2018-06-17T02:21:33.515Z,0
2018-06-17T02:22:14.044Z,0
2018-06-17T02:22:54.496Z,0
2018-06-17T02:23:35.001Z,0
2018-06-17T02:24:15.510Z,0
2018-06-17T02:24:56.041Z,0
2018-06-17T02:25:36.486Z,0
2018-06-17T02:26:17.006Z,0
2018-06-17T02:26:57.461Z,0
2018-06-17T02:27:38.005Z,0
2018-06-17T02:28:18.459Z,0
2018-06-17T02:28:59.016Z,0
2018-06-17T02:29:39.520Z,0
2018-06-17T02:30:19.955Z,0
2018-06-17T02:31:00.498Z,0
2018-06-17T02:31:40.937Z,0
2018-06-17T02:32:21.419Z,0
2018-06-17T02:33:01.930Z,0
2018-06-17T02:33:42.454Z,0
2018-06-17T02:34:23.019Z,0
2018-06-17T02:35:03.479Z,0
2018-06-17T02:35:44.035Z,0
2018-06-17T02:36:24.551Z,0
2018-06-17T02:37:05.036Z,0
2018-06-17T02:37:45.506Z,0
2018-06-17T02:38:26.005Z,0
2018-06-17T02:39:06.551Z,0
2018-06-17T02:39:47.040Z,0
2018-06-17T02:40:27.513Z,0
2018-06-17T02:41:08.091Z,0
2018-06-17T02:41:48.557Z,0
2018-06-17T02:42:29.041Z,0
2018-06-17T02:43:09.639Z,0
2018-06-17T02:43:50.062Z,0
2018-06-17T02:44:30.594Z,0
2018-06-17T02:45:11.082Z,0
2018-06-17T02:45:51.601Z,0
2018-06-17T02:46:32.061Z,4
2018-06-17T02:47:12.529Z,4
2018-06-17T02:47:53.092Z,0
2018-06-17T02:48:33.595Z,0
2018-06-17T02:49:14.051Z,4
2018-06-17T02:49:54.537Z,4
2018-06-17T02:50:35.031Z,4
2018-06-17T02:51:15.505Z,0
2018-06-17T02:51:56.019Z,4
2018-06-17T02:52:36.513Z,4
2018-06-17T02:53:16.989Z,4
2018-06-17T02:53:57.508Z,4
2018-06-17T02:54:37.989Z,8
2018-06-17T02:55:18.519Z,8
2018-06-17T02:55:58.990Z,8
2018-06-17T02:56:39.487Z,8
2018-06-17T02:57:19.977Z,12
2018-06-17T02:58:00.522Z,12
2018-06-17T02:58:41.014Z,12
2018-06-17T02:59:21.507Z,8
2018-06-17T03:00:02.028Z,8
2018-06-17T03:00:42.516Z,8
2018-06-17T03:01:23.033Z,8
2018-06-17T03:02:03.538Z,12
2018-06-17T03:02:44.076Z,12
2018-06-17T03:03:24.591Z,16
2018-06-17T03:04:05.055Z,16
2018-06-17T03:04:45.526Z,20
2018-06-17T03:05:26.009Z,24
2018-06-17T03:06:06.528Z,20
2018-06-17T03:06:47.019Z,24
2018-06-17T03:07:27.500Z,28
2018-06-17T03:08:07.963Z,32
2018-06-17T03:08:48.534Z,32
2018-06-17T03:09:29.020Z,40
2018-06-17T03:10:09.527Z,44
2018-06-17T03:10:50.078Z,52
2018-06-17T03:11:30.586Z,56
2018-06-17T03:12:11.056Z,60
2018-06-17T03:12:51.549Z,68
2018-06-17T03:13:32.063Z,68
2018-06-17T03:14:12.568Z,76
2018-06-17T03:14:53.027Z,84
2018-06-17T03:15:33.525Z,92
2018-06-17T03:16:14.044Z,96
2018-06-17T03:16:54.499Z,104
2018-06-17T03:17:34.985Z,108
2018-06-17T03:18:15.524Z,112
2018-06-17T03:18:56.017Z,112
2018-06-17T03:19:36.528Z,120
2018-06-17T03:20:17.052Z,124
2018-06-17T03:20:57.564Z,124
2018-06-17T03:21:38.058Z,120
2018-06-17T03:22:18.549Z,116
2018-06-17T03:22:59.117Z,112
2018-06-17T03:23:39.576Z,112
2018-06-17T03:24:20.063Z,116
2018-06-17T03:25:00.585Z,124
2018-06-17T03:25:41.078Z,136
2018-06-17T03:26:21.597Z,148
2018-06-17T03:27:02.064Z,156
2018-06-17T03:27:42.561Z,160
2018-06-17T03:28:23.045Z,160
2018-06-17T03:29:03.585Z,156
2018-06-17T03:29:44.056Z,164
2018-06-17T03:30:24.581Z,172
2018-06-17T03:31:05.064Z,180
2018-06-17T03:31:45.584Z,188
2018-06-17T03:32:26.061Z,204
2018-06-17T03:33:06.589Z,216
2018-06-17T03:33:47.065Z,232
2018-06-17T03:34:27.612Z,248
2018-06-17T03:35:08.063Z,260
2018-06-17T03:35:48.587Z,264
2018-06-17T03:36:29.070Z,276
2018-06-17T03:37:09.565Z,276
2018-06-17T03:37:50.061Z,284
2018-06-17T03:38:30.597Z,304
2018-06-17T03:39:11.062Z,320
2018-06-17T03:39:51.593Z,336
2018-06-17T03:40:32.079Z,364
2018-06-17T03:41:12.577Z,388
2018-06-17T03:41:53.117Z,412
2018-06-17T03:42:33.567Z,424
2018-06-17T03:43:14.125Z,436
2018-06-17T03:43:54.607Z,444
2018-06-17T03:44:35.124Z,452
2018-06-17T03:45:15.620Z,464
2018-06-17T03:45:56.126Z,480
2018-06-17T03:46:36.635Z,480
2018-06-17T03:47:17.131Z,476
2018-06-17T03:47:57.644Z,484
2018-06-17T03:48:38.156Z,492
2018-06-17T03:49:18.671Z,520
2018-06-17T03:49:59.175Z,560
2018-06-17T03:50:39.700Z,604
2018-06-17T03:51:20.238Z,632
2018-06-17T03:52:00.763Z,644
2018-06-17T03:52:41.295Z,652
2018-06-17T03:53:21.789Z,656
2018-06-17T03:54:02.289Z,664
2018-06-17T03:54:42.807Z,672
2018-06-17T03:55:23.338Z,680
2018-06-17T03:56:03.799Z,732
2018-06-17T03:56:44.259Z,788
2018-06-17T03:57:24.776Z,860
2018-06-17T03:58:05.307Z,916
2018-06-17T03:58:45.836Z,924
2018-06-17T03:59:26.356Z,908
2018-06-17T04:00:06.897Z,904
2018-06-17T04:00:47.394Z,888
2018-06-17T04:01:27.923Z,860
2018-06-17T04:02:08.453Z,832
2018-06-17T04:02:48.965Z,808
2018-06-17T04:03:29.502Z,768
2018-06-17T04:04:10.134Z,704
2018-06-17T04:04:50.601Z,648
2018-06-17T04:05:31.128Z,620
2018-06-17T04:06:11.654Z,616
2018-06-17T04:06:52.173Z,632
2018-06-17T04:07:32.693Z,652
2018-06-17T04:08:13.212Z,668
2018-06-17T04:08:53.744Z,704
2018-06-17T04:09:34.257Z,752
2018-06-17T04:10:14.810Z,824
2018-06-17T04:10:55.306Z,924
2018-06-17T04:11:35.822Z,1004
2018-06-17T04:12:16.356Z,1088
2018-06-17T04:12:56.872Z,1148
2018-06-17T04:13:37.385Z,1200
2018-06-17T04:14:17.897Z,1244
2018-06-17T04:14:58.432Z,1300
2018-06-17T04:15:38.920Z,1384
2018-06-17T04:16:19.458Z,1444
2018-06-17T04:16:59.937Z,1492
2018-06-17T04:17:40.470Z,1532
2018-06-17T04:18:20.998Z,1616
2018-06-17T04:19:01.477Z,1796
2018-06-17T04:19:41.941Z,1972
2018-06-17T04:20:22.437Z,2116
2018-06-17T04:21:02.927Z,2228
2018-06-17T04:21:43.388Z,2292
2018-06-17T04:22:23.914Z,2368
2018-06-17T04:23:04.381Z,2420
2018-06-17T04:23:44.915Z,2488
2018-06-17T04:24:25.446Z,2536
2018-06-17T04:25:05.916Z,2604
2018-06-17T04:25:46.446Z,2660
2018-06-17T04:26:26.935Z,2716
2018-06-17T04:27:07.377Z,2748
2018-06-17T04:27:47.900Z,2748
2018-06-17T04:28:28.373Z,2696
2018-06-17T04:29:08.878Z,2608
2018-06-17T04:29:49.397Z,2512
2018-06-17T04:30:29.889Z,2432
2018-06-17T04:31:10.387Z,2372
2018-06-17T04:31:50.906Z,2332
2018-06-17T04:32:31.420Z,2336
2018-06-17T04:33:11.896Z,2348
2018-06-17T04:33:52.367Z,2356
2018-06-17T04:34:32.857Z,2360
2018-06-17T04:35:13.371Z,2372
2018-06-17T04:35:53.878Z,2396
2018-06-17T04:36:34.363Z,2404
2018-06-17T04:37:14.879Z,2416
2018-06-17T04:37:55.359Z,2432
2018-06-17T04:38:35.898Z,2472
2018-06-17T04:39:16.368Z,2512
2018-06-17T04:39:56.902Z,2536
2018-06-17T04:40:37.330Z,2548
2018-06-17T04:41:17.828Z,2568
2018-06-17T04:41:58.325Z,2608
2018-06-17T04:42:38.813Z,2700
2018-06-17T04:43:19.417Z,2748
2018-06-17T04:43:59.940Z,2776
2018-06-17T04:44:40.454Z,2792
2018-06-17T04:45:20.979Z,2840
2018-06-17T04:46:01.464Z,4600
2018-06-17T04:46:42.002Z,3660
2018-06-17T04:47:22.491Z,2908
2018-06-17T04:48:03.002Z,3036
2018-06-17T04:48:43.540Z,3080
2018-06-17T04:49:24.036Z,3300
2018-06-17T04:50:04.532Z,3360
2018-06-17T04:50:45.010Z,3384
2018-06-17T04:51:25.513Z,3552
2018-06-17T04:52:06.049Z,3660
2018-06-17T04:52:46.519Z,3916
2018-06-17T04:53:27.034Z,4072
2018-06-17T04:54:07.524Z,4616
2018-06-17T04:54:48.032Z,5228
2018-06-17T04:55:28.493Z,5768
2018-06-17T04:56:08.992Z,4264
2018-06-17T04:56:49.471Z,3804
2018-06-17T04:57:29.968Z,3760
2018-06-17T04:58:10.496Z,3664
2018-06-17T04:58:50.973Z,3712
2018-06-17T04:59:31.512Z,3872
2018-06-17T05:00:11.988Z,4040
2018-06-17T05:00:52.471Z,4236
2018-06-17T05:01:32.947Z,4368
2018-06-17T05:02:13.449Z,4572
2018-06-17T05:02:53.934Z,4256
2018-06-17T05:03:34.421Z,4700
2018-06-17T05:04:14.951Z,4460
2018-06-17T05:04:55.429Z,3944
2018-06-17T05:05:35.906Z,3912
2018-06-17T05:06:16.461Z,3856
2018-06-17T05:06:56.965Z,3888
2018-06-17T05:07:37.457Z,3812
2018-06-17T05:08:17.971Z,3892
2018-06-17T05:08:58.463Z,3920
2018-06-17T05:09:38.919Z,3940
2018-06-17T05:10:19.431Z,3936
2018-06-17T05:10:59.917Z,4044
2018-06-17T05:11:40.431Z,4096
2018-06-17T05:12:20.965Z,4088
2018-06-17T05:13:01.429Z,4132
2018-06-17T05:13:41.931Z,4272
2018-06-17T05:14:22.426Z,4628
2018-06-17T05:15:02.944Z,6052
2018-06-17T05:15:43.429Z,7960
2018-06-17T05:16:23.928Z,8852
2018-06-17T05:17:04.478Z,8300
2018-06-17T05:17:44.974Z,7444
2018-06-17T05:18:25.508Z,6464
2018-06-17T05:19:06.004Z,5412
2018-06-17T05:19:46.484Z,5528
2018-06-17T05:20:26.970Z,5812
2018-06-17T05:21:07.440Z,5768
2018-06-17T05:21:47.961Z,5944
2018-06-17T05:22:28.468Z,6356
2018-06-17T05:23:08.966Z,7384
2018-06-17T05:23:49.434Z,6824
2018-06-17T05:24:29.973Z,6828
2018-06-17T05:25:10.451Z,9196
2018-06-17T05:25:50.982Z,17024
2018-06-17T05:26:31.468Z,21728
2018-06-17T05:27:11.983Z,18560
2018-06-17T05:27:52.436Z,13804
2018-06-17T05:28:32.926Z,7512
2018-06-17T05:29:13.428Z,6716
2018-06-17T05:29:53.897Z,6832
2018-06-17T05:30:34.403Z,7316
2018-06-17T05:31:14.947Z,8192
2018-06-17T05:31:55.455Z,8636
2018-06-17T05:32:35.924Z,8860
2018-06-17T05:33:16.455Z,7616
2018-06-17T05:33:56.936Z,7432
2018-06-17T05:34:37.419Z,7104
2018-06-17T05:35:17.918Z,6848
2018-06-17T05:35:58.470Z,6780
2018-06-17T05:36:38.935Z,6800
2018-06-17T05:37:19.392Z,6788
2018-06-17T05:37:59.896Z,6656
2018-06-17T05:38:40.431Z,6668
2018-06-17T05:39:20.964Z,6652
2018-06-17T05:40:01.421Z,6664
2018-06-17T05:40:41.906Z,6668
2018-06-17T05:41:22.447Z,6712
2018-06-17T05:42:02.945Z,6672
2018-06-17T05:42:43.430Z,6692
2018-06-17T05:43:23.926Z,6768
2018-06-17T05:44:04.395Z,6924
2018-06-17T05:44:44.875Z,7216
2018-06-17T05:45:25.390Z,7320
2018-06-17T05:46:05.893Z,7356
2018-06-17T05:46:46.447Z,7352
2018-06-17T05:47:26.921Z,7316
2018-06-17T05:48:07.415Z,7340
2018-06-17T05:48:47.893Z,7332
2018-06-17T05:49:28.347Z,7316
2018-06-17T05:50:08.902Z,7436
2018-06-17T05:50:49.378Z,7520
2018-06-17T05:51:29.889Z,9004
2018-06-17T05:52:10.428Z,8840
2018-06-17T05:52:50.894Z,8032
2018-06-17T05:53:31.444Z,10848
2018-06-17T05:54:11.963Z,9584
2018-06-17T05:54:52.428Z,8968
2018-06-17T05:55:32.976Z,12192
2018-06-17T05:56:13.451Z,12220
2018-06-17T05:56:53.936Z,13484
2018-06-17T05:57:34.412Z,14596
2018-06-17T05:58:14.956Z,15476
2018-06-17T05:58:55.466Z,16096
2018-06-17T05:59:35.967Z,15840
2018-06-17T06:00:16.437Z,16032
2018-06-17T06:00:56.917Z,14968
2018-06-17T06:01:37.429Z,14564
2018-06-17T06:02:17.960Z,13864
2018-06-17T06:02:58.417Z,12924
2018-06-17T06:03:38.972Z,12144
2018-06-17T06:04:19.467Z,11056
2018-06-17T06:04:59.926Z,10200
2018-06-17T06:05:40.462Z,9824
2018-06-17T06:06:20.969Z,9592
2018-06-17T06:07:01.449Z,9520
2018-06-17T06:07:41.940Z,9492
2018-06-17T06:08:22.472Z,9544
2018-06-17T06:09:03.009Z,9576
2018-06-17T06:09:43.494Z,9576
2018-06-17T06:10:24.012Z,9608
2018-06-17T06:11:04.573Z,9548
2018-06-17T06:11:45.135Z,9608
2018-06-17T06:12:25.610Z,9672
2018-06-17T06:13:06.094Z,9764
2018-06-17T06:13:46.602Z,9016
2018-06-17T06:14:27.175Z,7968
2018-06-17T06:15:07.637Z,8088
2018-06-17T06:15:48.155Z,7768
2018-06-17T06:16:28.610Z,7744
2018-06-17T06:17:09.111Z,8172
2018-06-17T06:17:49.610Z,8344
2018-06-17T06:18:30.145Z,8456
2018-06-17T06:19:10.698Z,9428
2018-06-17T06:19:51.158Z,10476
2018-06-17T06:20:31.620Z,10576
2018-06-17T06:21:12.158Z,10524
2018-06-17T06:21:52.625Z,10512
2018-06-17T06:22:34.043Z,10532
2018-06-17T06:23:14.558Z,10612
2018-06-17T06:23:55.053Z,10792
2018-06-17T06:24:35.607Z,11044
2018-06-17T06:25:16.069Z,11276
2018-06-17T06:25:56.559Z,11520
2018-06-17T06:26:37.089Z,11816
2018-06-17T06:27:17.594Z,12132
2018-06-17T06:27:58.100Z,12436
2018-06-17T06:28:38.654Z,12700
2018-06-17T06:29:19.091Z,12840
2018-06-17T06:29:59.592Z,12864
2018-06-17T06:30:40.084Z,12832
2018-06-17T06:31:20.571Z,12896
2018-06-17T06:32:01.084Z,12992
2018-06-17T06:32:42.021Z,12512
2018-06-17T06:33:22.457Z,11952
2018-06-17T06:34:03.227Z,12156
2018-06-17T06:34:43.668Z,12180
2018-06-17T06:35:24.358Z,13132
2018-06-17T06:36:04.800Z,12904
2018-06-17T06:36:45.314Z,11368
2018-06-17T06:37:25.791Z,10368
2018-06-17T06:38:06.324Z,11944
2018-06-17T06:38:46.813Z,11880
2018-06-17T06:39:27.295Z,12088
2018-06-17T06:40:07.818Z,11432
2018-06-17T06:40:48.325Z,11160
2018-06-17T06:41:28.811Z,11444
2018-06-17T06:42:09.326Z,10608
2018-06-17T06:42:49.852Z,10572
2018-06-17T06:43:30.335Z,9320
2018-06-17T06:44:10.812Z,9084
2018-06-17T06:44:51.382Z,10744
2018-06-17T06:45:31.869Z,11608
2018-06-17T06:46:12.332Z,11452
2018-06-17T06:46:52.860Z,11296
2018-06-17T06:47:33.415Z,11228
2018-06-17T06:48:13.888Z,11220
2018-06-17T06:48:54.336Z,11220
2018-06-17T06:49:34.829Z,10660
2018-06-17T06:50:15.297Z,11284
2018-06-17T06:50:55.925Z,10748
2018-06-17T06:51:36.285Z,9876
2018-06-17T06:52:16.786Z,9804
2018-06-17T06:52:57.259Z,9476
2018-06-17T06:53:37.788Z,9532
2018-06-17T06:54:18.289Z,9672
2018-06-17T06:54:58.794Z,10256
2018-06-17T06:55:39.323Z,9992
2018-06-17T06:56:19.786Z,9824
2018-06-17T06:57:00.291Z,9816
2018-06-17T06:57:40.775Z,9740
2018-06-17T06:58:21.271Z,9664
2018-06-17T06:59:01.772Z,8372
2018-06-17T06:59:42.252Z,8888
2018-06-17T07:00:22.827Z,9280
2018-06-17T07:01:03.288Z,7628
2018-06-17T07:01:43.764Z,7292
2018-06-17T07:02:24.259Z,8128
2018-06-17T07:03:04.801Z,9080
2018-06-17T07:03:45.246Z,9368
2018-06-17T07:04:25.771Z,9280
2018-06-17T07:05:06.204Z,9204
2018-06-17T07:05:46.727Z,9072
2018-06-17T07:06:27.407Z,9032
2018-06-17T07:07:07.921Z,8928
2018-06-17T07:07:48.410Z,8768
2018-06-17T07:08:28.863Z,8640
2018-06-17T07:09:09.398Z,8576
2018-06-17T07:09:49.865Z,8516
2018-06-17T07:10:30.374Z,8480
2018-06-17T07:11:10.906Z,8476
2018-06-17T07:11:51.370Z,8376
2018-06-17T07:12:31.906Z,8248
2018-06-17T07:13:12.407Z,7748
2018-06-17T07:13:52.908Z,7756
2018-06-17T07:14:33.414Z,7520
2018-06-17T07:15:13.907Z,8016
2018-06-17T07:15:54.404Z,8208
2018-06-17T07:16:34.946Z,8292
2018-06-17T07:17:15.511Z,8352
2018-06-17T07:17:56.022Z,8280
2018-06-17T07:18:36.522Z,8388
2018-06-17T07:19:17.055Z,8264
2018-06-17T07:19:57.606Z,8316
2018-06-17T07:20:38.063Z,8332
2018-06-17T07:21:18.556Z,8160
2018-06-17T07:21:59.059Z,8212
2018-06-17T07:22:39.570Z,8100
2018-06-17T07:23:20.103Z,8020
2018-06-17T07:24:00.572Z,8124
2018-06-17T07:24:41.071Z,8012
2018-06-17T07:25:21.569Z,8088
2018-06-17T07:26:02.084Z,8032
2018-06-17T07:26:42.580Z,8012
2018-06-17T07:27:23.053Z,7940
2018-06-17T07:28:03.594Z,7932
2018-06-17T07:28:44.662Z,7944
2018-06-17T07:29:25.177Z,7792
2018-06-17T07:30:05.713Z,7632
2018-06-17T07:30:46.238Z,7648
2018-06-17T07:31:26.784Z,7552
2018-06-17T07:32:07.369Z,7336
2018-06-17T07:32:47.791Z,7452
2018-06-17T07:33:28.346Z,7600
2018-06-17T07:34:08.889Z,7852
2018-06-17T07:34:49.410Z,7748
2018-06-17T07:35:29.924Z,7700
2018-06-17T07:36:10.451Z,7616
2018-06-17T07:36:50.977Z,7632
2018-06-17T07:37:31.505Z,7612
2018-06-17T07:38:12.032Z,7600
2018-06-17T07:38:52.547Z,7604
2018-06-17T07:39:33.050Z,7600
2018-06-17T07:40:13.552Z,7688
2018-06-17T07:40:54.072Z,7892
2018-06-17T07:41:34.593Z,7900
2018-06-17T07:42:15.112Z,7820
2018-06-17T07:42:55.625Z,7852
2018-06-17T07:43:36.157Z,7420
2018-06-17T07:44:16.666Z,7396
2018-06-17T07:44:57.156Z,7360
2018-06-17T07:45:37.656Z,6808
2018-06-17T07:46:18.180Z,7140
2018-06-17T07:46:58.727Z,7208
2018-06-17T07:47:39.272Z,7208
2018-06-17T07:48:19.768Z,7444
2018-06-17T07:49:00.289Z,7324
2018-06-17T07:49:40.808Z,7504
2018-06-17T07:50:21.361Z,7856
2018-06-17T07:51:01.883Z,7836
2018-06-17T07:51:42.410Z,7848
2018-06-17T07:52:22.939Z,7768
2018-06-17T07:53:03.463Z,7776
2018-06-17T07:53:43.968Z,7764
2018-06-17T07:54:24.489Z,7668
2018-06-17T07:55:05.015Z,7624
2018-06-17T07:55:45.530Z,7540
2018-06-17T07:56:26.012Z,7552
2018-06-17T07:57:06.492Z,7520
2018-06-17T07:57:46.994Z,7564
2018-06-17T07:58:27.468Z,7560
2018-06-17T07:59:07.996Z,7488
2018-06-17T07:59:48.544Z,7512
2018-06-17T08:00:29.036Z,7496
2018-06-17T08:01:09.538Z,7436
2018-06-17T08:01:50.055Z,7448
2018-06-17T08:02:30.750Z,7320
2018-06-17T08:03:11.247Z,7420
2018-06-17T08:03:51.793Z,7484
2018-06-17T08:04:32.262Z,7352
2018-06-17T08:05:12.740Z,7192
2018-06-17T08:05:53.237Z,7184
2018-06-17T08:06:33.732Z,7040
2018-06-17T08:07:14.263Z,6932
2018-06-17T08:07:54.797Z,6816
2018-06-17T08:08:35.328Z,6664
2018-06-17T08:09:15.869Z,6232
2018-06-17T08:09:56.402Z,6284
2018-06-17T08:10:36.938Z,6056
2018-06-17T08:11:17.456Z,6144
2018-06-17T08:11:57.994Z,6076
2018-06-17T08:12:38.518Z,6128
2018-06-17T08:13:19.056Z,6200
2018-06-17T08:14:00.427Z,6052
2018-06-17T08:14:40.949Z,5980
2018-06-17T08:15:21.481Z,5988
2018-06-17T08:16:02.036Z,6148
2018-06-17T08:16:42.553Z,6292
2018-06-17T08:17:23.075Z,6604
2018-06-17T08:18:03.609Z,6844
2018-06-17T08:18:44.124Z,7228
2018-06-17T08:19:24.655Z,7628
2018-06-17T08:20:05.196Z,6248
2018-06-17T08:20:45.733Z,6888
2018-06-17T08:21:26.264Z,7672
2018-06-17T08:22:06.803Z,7472
2018-06-17T08:22:48.056Z,7692
2018-06-17T08:23:28.675Z,7952
2018-06-17T08:24:09.216Z,8196
2018-06-17T08:24:49.817Z,8292
2018-06-17T08:25:30.340Z,8728
2018-06-17T08:26:10.855Z,9484
2018-06-17T08:26:51.403Z,10484
2018-06-17T08:27:31.913Z,10920
2018-06-17T08:28:12.457Z,11084
2018-06-17T08:28:53.051Z,11148
2018-06-17T08:29:33.501Z,10712
2018-06-17T08:30:14.030Z,10448
2018-06-17T08:30:54.550Z,10348
2018-06-17T08:31:35.063Z,10488
2018-06-17T08:32:15.618Z,10308
2018-06-17T08:32:56.129Z,10328
2018-06-17T08:33:36.633Z,10272
2018-06-17T08:34:17.150Z,10160
2018-06-17T08:34:57.701Z,10212
2018-06-17T08:35:38.193Z,10092
2018-06-17T08:36:18.850Z,9968
2018-06-17T08:36:59.197Z,9796
2018-06-17T08:37:39.703Z,9540
2018-06-17T08:38:20.242Z,9288
2018-06-17T08:39:00.775Z,9096
2018-06-17T08:39:41.285Z,8980
2018-06-17T08:40:21.711Z,8956
2018-06-17T08:41:02.256Z,8892
2018-06-17T08:41:42.789Z,8900
2018-06-17T08:42:23.318Z,9012
2018-06-17T08:43:03.838Z,9204
2018-06-17T08:43:44.345Z,9320
2018-06-17T08:44:24.837Z,9428
2018-06-17T08:45:05.337Z,9452
2018-06-17T08:45:45.912Z,9484
2018-06-17T08:46:26.400Z,9344
2018-06-17T08:47:06.897Z,9136
2018-06-17T08:47:47.420Z,8888
2018-06-17T08:48:27.952Z,8700
2018-06-17T08:49:08.485Z,8568
2018-06-17T08:49:49.082Z,8376
2018-06-17T08:50:29.601Z,7728
2018-06-17T08:51:10.094Z,6744
2018-06-17T08:51:50.598Z,7836
2018-06-17T08:52:31.123Z,7700
2018-06-17T08:53:11.658Z,7652
2018-06-17T08:53:52.152Z,7680
2018-06-17T08:54:32.727Z,7692
2018-06-17T08:55:13.229Z,7816
2018-06-17T08:55:53.754Z,8100
2018-06-17T08:56:34.295Z,8192
2018-06-17T08:57:14.785Z,8252
2018-06-17T08:57:55.347Z,8304
2018-06-17T08:58:35.863Z,8364
2018-06-17T08:59:16.382Z,8328
2018-06-17T08:59:56.844Z,8204
2018-06-17T09:00:37.371Z,8056
2018-06-17T09:01:17.894Z,8052
2018-06-17T09:01:58.365Z,8164
2018-06-17T09:02:38.893Z,8160
2018-06-17T09:03:19.422Z,8256
2018-06-17T09:03:59.932Z,8356
2018-06-17T09:04:40.431Z,8312
2018-06-17T09:05:20.976Z,8172
2018-06-17T09:06:01.650Z,7988
2018-06-17T09:06:42.102Z,7684
2018-06-17T09:07:22.616Z,7584
2018-06-17T09:08:03.123Z,7488
2018-06-17T09:08:43.599Z,7392
2018-06-17T09:09:24.147Z,7152
2018-06-17T09:10:04.628Z,6928
2018-06-17T09:10:45.153Z,6584
2018-06-17T09:11:25.705Z,6320
2018-06-17T09:12:06.195Z,6104
2018-06-17T09:12:46.701Z,6108
2018-06-17T09:13:27.253Z,5984
2018-06-17T09:14:07.772Z,5768
2018-06-17T09:14:48.275Z,5648
2018-06-17T09:15:28.707Z,5664
2018-06-17T09:16:09.228Z,5760
2018-06-17T09:16:49.762Z,5984
2018-06-17T09:17:30.267Z,6208
2018-06-17T09:18:10.808Z,6568